Lumberton Municipal Airport
KLBT : now visible

Airfield :











YOU CAN JOIN US ON...

 
LOGIN :

Register | Disclaimer

   EN    FR    IT 

 









Legend :    VFR   Marginal VFR   IFR   Intensive IFR   Very Intensive IFR
Visi :
Ceiling :
>= 8 km
>= 3000ft
5 to 8 km
1000 to 3000 ft
1500m to 5 km
500 to 1000 ft
800 to 1500m
200 to 500 ft
< 800m
< 200 ft
Symbols :   Thunderstorms  Fog  Heavy snow  Heavy precipitations  Wind > 20 kt






- Airport Elevation : 126 ft


KLBT - Lumberton Municipal

CURRENT METAR :
  • 280856Z AUTO 23004KT 10SM CLR 12/08 A2980 RMK AO2 SLP088 T01170083 53007 TSNO $

EXPIRED METARs :
  • 280756Z AUTO 25007KT 10SM CLR 13/09 A2979 RMK AO2 SLP087 T01330089 TSNO $
  • 280656Z AUTO 25010KT 10SM CLR 14/09 A2977 RMK AO2 SLP080 T01440089 TSNO $

TAF KLBT
Valid from the 28 at 06:00 until the 29 at 06:00 UTC


280520Z 2806/2906 25008KT P6SM SKC
FM281400 26010KT P6SM SKC
FM281800 28012G15KT P6SM SCT040
KZDC FIR / North America



MET'MAP, your aeronautical weather chart ! - Copyright ORBIFLY December 2007 - Disclaimer

ORBIFLY MET'MAP TEAM :

Programming & Development : Alexandra Zaïnal
Original concept : Baudouin d'Aumeries
Technical & hardware support : Manuel Goepfert
Assistance : Marc-Olivier Méhu




SOURCES & CREDITS :

   NOAA       Earth
Advisory